Time;durP1;ratioP1;P1;durP2;ratioP2;P2;SDS_P1;SDS_P2;PMS_P1;PMS_P2;Temp;Humidity;BMP_temperature;BMP_pressure;BME280_temperature;BME280_humidity;BME280_pressure;Samples;Min_cycle;Max_cycle;Signal;HPM_P1;HPM_P2
2022/04/06 00:01:22;;;;;;;3.30;2.80;;;;;;;;;;5072696;28;20036;-67
2022/04/06 00:03:48;;;;;;;2.88;2.25;;;;;;;;;;5069156;28;20445;-67
2022/04/06 00:06:14;;;;;;;4.20;2.78;;;;;;;;;;5093041;28;20114;-67
2022/04/06 00:08:40;;;;;;;3.28;2.15;;;;;;;;;;5093310;28;20021;-67
2022/04/06 00:11:06;;;;;;;5.32;2.42;;;;;;;;;;5092732;28;20135;-67
2022/04/06 00:13:32;;;;;;;2.75;2.03;;;;;;;;;;5074389;28;20035;-67
2022/04/06 00:15:58;;;;;;;2.45;2.00;;;;;;;;;;5092939;28;20224;-67
2022/04/06 00:18:24;;;;;;;4.30;2.13;;;;;;;;;;5091647;28;20034;-67
2022/04/06 00:20:50;;;;;;;3.85;2.05;;;;;;;;;;5074326;28;20370;-67
2022/04/06 00:23:16;;;;;;;3.70;2.40;;;;;;;;;;5092352;28;20054;-67
2022/04/06 00:25:42;;;;;;;3.15;1.67;;;;;;;;;;5092601;28;20099;-67
2022/04/06 00:28:08;;;;;;;4.25;2.08;;;;;;;;;;5072042;28;20120;-68
2022/04/06 00:30:35;;;;;;;3.75;2.10;;;;;;;;;;5092650;28;20089;-67
2022/04/06 00:33:01;;;;;;;5.60;2.63;;;;;;;;;;5091174;28;20408;-67
2022/04/06 00:35:31;;;;;;;5.97;2.40;;;;;;;;;;5092465;28;20028;-68
2022/04/06 00:37:57;;;;;;;5.35;2.22;;;;;;;;;;5093017;28;20028;-68
2022/04/06 00:40:23;;;;;;;5.28;2.22;;;;;;;;;;5092377;28;20024;-67
2022/04/06 00:42:50;;;;;;;5.03;2.47;;;;;;;;;;5091572;28;20123;-68
2022/04/06 00:45:16;;;;;;;6.13;1.70;;;;;;;;;;5092092;28;20062;-67
2022/04/06 00:47:42;;;;;;;3.42;2.40;;;;;;;;;;5072872;28;20043;-68
2022/04/06 00:50:08;;;;;;;7.40;2.28;;;;;;;;;;5092148;28;20034;-67
2022/04/06 00:52:35;;;;;;;5.13;2.40;;;;;;;;;;5091876;28;20380;-67
2022/04/06 00:55:01;;;;;;;7.28;2.30;;;;;;;;;;5091970;28;20020;-68
2022/04/06 00:57:27;;;;;;;3.60;2.15;;;;;;;;;;5091701;28;20032;-67
2022/04/06 00:59:55;;;;;;;5.22;2.58;;;;;;;;;;5073987;28;20035;-68
2022/04/06 01:02:21;;;;;;;4.93;2.40;;;;;;;;;;5068309;28;20465;-67
2022/04/06 01:04:47;;;;;;;3.97;2.63;;;;;;;;;;5089463;28;20061;-67
2022/04/06 01:07:13;;;;;;;3.22;2.40;;;;;;;;;;5091601;28;20119;-67
2022/04/06 01:09:39;;;;;;;6.95;2.70;;;;;;;;;;5091821;28;20023;-67
2022/04/06 01:12:05;;;;;;;3.47;2.30;;;;;;;;;;5090759;28;20028;-67
2022/04/06 01:14:31;;;;;;;5.07;2.20;;;;;;;;;;5091781;28;20107;-67
2022/04/06 01:17:04;;;;;;;4.32;2.83;;;;;;;;;;5091425;28;20028;-68
2022/04/06 01:19:31;;;;;;;3.80;2.40;;;;;;;;;;5072440;28;20035;-67
2022/04/06 01:21:57;;;;;;;8.70;2.60;;;;;;;;;;5091043;28;20031;-67
2022/04/06 01:24:24;;;;;;;2.83;2.30;;;;;;;;;;5089591;28;20034;-67
2022/04/06 01:26:50;;;;;;;9.68;3.13;;;;;;;;;;5090950;28;20040;-67
2022/04/06 01:29:15;;;;;;;4.80;2.28;;;;;;;;;;5072617;28;20152;-67
2022/04/06 01:31:41;;;;;;;3.17;2.35;;;;;;;;;;5091352;28;20157;-67
2022/04/06 01:34:07;;;;;;;7.07;2.83;;;;;;;;;;5090329;28;20489;-67
2022/04/06 01:36:33;;;;;;;5.07;2.67;;;;;;;;;;5089955;28;20108;-67
2022/04/06 01:38:59;;;;;;;4.85;2.80;;;;;;;;;;5071662;28;20377;-67
2022/04/06 01:41:32;;;;;;;3.97;2.53;;;;;;;;;;5090858;28;20032;-67
2022/04/06 01:43:58;;;;;;;4.38;2.55;;;;;;;;;;5091136;28;20028;-68
2022/04/06 01:46:24;;;;;;;6.50;3.25;;;;;;;;;;5091493;28;20036;-67
2022/04/06 01:54:23;;;;;;;5.15;3.17;;;;;;;;;;5091720;28;20483;-68
2022/04/06 01:56:50;;;;;;;9.68;3.72;;;;;;;;;;5072707;28;20089;-67
2022/04/06 01:59:16;;;;;;;3.75;2.22;;;;;;;;;;5091048;28;20028;-67
2022/04/06 02:01:43;;;;;;;5.05;3.22;;;;;;;;;;5090418;28;20047;-68
2022/04/06 02:04:15;;;;;;;10.15;3.33;;;;;;;;;;5063579;28;20108;-67
2022/04/06 02:06:41;;;;;;;3.78;2.65;;;;;;;;;;5052430;28;20114;-68
2022/04/06 02:09:08;;;;;;;6.22;3.33;;;;;;;;;;5067977;28;20276;-68
2022/04/06 02:11:34;;;;;;;5.30;3.25;;;;;;;;;;5057478;28;20051;-68
2022/04/06 02:14:00;;;;;;;5.90;3.65;;;;;;;;;;5072514;28;20021;-67
2022/04/06 02:16:27;;;;;;;6.65;2.92;;;;;;;;;;5052374;28;20028;-67
2022/04/06 02:18:53;;;;;;;6.53;3.95;;;;;;;;;;5075459;28;20045;-68
2022/04/06 02:21:19;;;;;;;5.80;3.70;;;;;;;;;;5089900;28;20081;-68
2022/04/06 02:23:45;;;;;;;7.32;4.10;;;;;;;;;;5072555;28;20477;-67
2022/04/06 02:26:11;;;;;;;5.40;3.50;;;;;;;;;;5090402;28;20111;-67
2022/04/06 02:28:37;;;;;;;6.70;3.88;;;;;;;;;;5090354;28;20077;-67
2022/04/06 02:31:03;;;;;;;5.43;3.38;;;;;;;;;;5090335;28;20442;-67
2022/04/06 02:33:29;;;;;;;7.05;3.95;;;;;;;;;;5086549;28;20074;-68
2022/04/06 02:35:55;;;;;;;5.07;3.63;;;;;;;;;;5088125;28;20568;-67
2022/04/06 02:38:21;;;;;;;6.88;4.55;;;;;;;;;;5090204;28;20020;-67
2022/04/06 02:40:47;;;;;;;6.15;3.78;;;;;;;;;;5071424;28;20469;-67
2022/04/06 02:43:13;;;;;;;6.32;3.70;;;;;;;;;;5071420;28;20020;-67
2022/04/06 02:45:39;;;;;;;5.30;3.92;;;;;;;;;;5088502;28;20057;-68
2022/04/06 02:48:06;;;;;;;6.72;3.65;;;;;;;;;;5089186;28;20115;-67
2022/04/06 02:50:32;;;;;;;7.72;3.95;;;;;;;;;;5088179;28;20024;-68
2022/04/06 02:52:58;;;;;;;5.70;3.72;;;;;;;;;;5089685;28;20078;-67
2022/04/06 02:55:24;;;;;;;9.63;4.22;;;;;;;;;;5089753;28;20024;-67
2022/04/06 02:57:50;;;;;;;6.15;3.92;;;;;;;;;;5090066;28;20420;-68
2022/04/06 03:00:18;;;;;;;6.88;4.18;;;;;;;;;;5090005;28;20500;-67
2022/04/06 03:02:46;;;;;;;10.90;4.47;;;;;;;;;;5089269;28;20017;-67
2022/04/06 03:05:12;;;;;;;10.07;3.92;;;;;;;;;;5071536;28;20232;-67
2022/04/06 03:07:39;;;;;;;5.95;3.25;;;;;;;;;;5089377;28;20094;-67
2022/04/06 03:10:05;;;;;;;7.15;3.85;;;;;;;;;;5089900;28;20066;-67
2022/04/06 03:12:31;;;;;;;5.50;3.13;;;;;;;;;;5073031;28;20089;-67
2022/04/06 03:14:57;;;;;;;5.28;3.17;;;;;;;;;;5073918;28;20383;-68
2022/04/06 03:17:23;;;;;;;7.68;3.58;;;;;;;;;;5091823;28;20040;-67
2022/04/06 03:19:50;;;;;;;6.85;4.13;;;;;;;;;;5074224;28;20028;-67
2022/04/06 03:22:17;;;;;;;6.35;3.50;;;;;;;;;;5092884;28;20527;-67
2022/04/06 03:24:46;;;;;;;6.53;3.53;;;;;;;;;;5096128;28;20032;-69
2022/04/06 03:27:12;;;;;;;5.82;3.70;;;;;;;;;;5095353;28;20067;-68
2022/04/06 03:29:40;;;;;;;5.57;3.53;;;;;;;;;;5094937;28;20492;-67
2022/04/06 03:32:09;;;;;;;6.47;3.47;;;;;;;;;;5092129;28;20028;-68
2022/04/06 03:34:35;;;;;;;8.73;4.17;;;;;;;;;;5093549;28;20027;-67
2022/04/06 03:37:02;;;;;;;4.75;3.67;;;;;;;;;;5092542;28;20028;-68
2022/04/06 03:39:28;;;;;;;6.00;3.53;;;;;;;;;;5093723;28;20047;-67
2022/04/06 03:41:54;;;;;;;6.63;4.00;;;;;;;;;;5092643;28;20020;-68
2022/04/06 03:44:20;;;;;;;7.20;4.40;;;;;;;;;;5093652;28;20469;-68
2022/04/06 03:46:46;;;;;;;6.72;4.05;;;;;;;;;;5075093;28;20044;-68
2022/04/06 03:49:12;;;;;;;7.75;3.97;;;;;;;;;;5093553;28;20031;-67
2022/04/06 03:51:38;;;;;;;8.15;3.65;;;;;;;;;;5092067;28;20036;-68
2022/04/06 03:54:04;;;;;;;7.25;3.70;;;;;;;;;;5092780;28;20028;-67
2022/04/06 03:56:30;;;;;;;7.13;3.40;;;;;;;;;;5072822;28;20016;-67
2022/04/06 03:58:56;;;;;;;4.55;3.70;;;;;;;;;;5093223;28;20062;-68
2022/04/06 04:01:22;;;;;;;5.50;3.38;;;;;;;;;;5074655;28;20104;-69
2022/04/06 04:03:48;;;;;;;5.55;3.30;;;;;;;;;;5093072;28;20065;-67
2022/04/06 04:06:14;;;;;;;8.05;4.20;;;;;;;;;;5091786;28;20626;-68
2022/04/06 04:08:41;;;;;;;5.35;3.45;;;;;;;;;;5074712;28;20114;-67
2022/04/06 04:11:08;;;;;;;8.75;4.10;;;;;;;;;;5074800;28;20034;-67
2022/04/06 04:13:39;;;;;;;4.78;3.30;;;;;;;;;;5092174;28;20039;-68
2022/04/06 04:16:06;;;;;;;7.28;4.03;;;;;;;;;;5074849;28;20034;-67
2022/04/06 04:18:32;;;;;;;7.38;3.78;;;;;;;;;;5092543;28;20099;-67
2022/04/06 04:23:42;;;;;;;5.45;3.50;;;;;;;;;;5092920;28;20039;-67
2022/04/06 04:26:08;;;;;;;6.70;3.83;;;;;;;;;;5092228;28;20113;-68
2022/04/06 04:28:34;;;;;;;9.50;4.32;;;;;;;;;;5093448;28;20494;-68
2022/04/06 04:31:00;;;;;;;5.60;3.70;;;;;;;;;;5089844;28;20075;-68
2022/04/06 04:33:26;;;;;;;5.63;3.47;;;;;;;;;;5090663;28;20024;-68
2022/04/06 04:35:53;;;;;;;7.47;3.72;;;;;;;;;;5093050;28;20073;-69
2022/04/06 04:38:19;;;;;;;5.28;3.38;;;;;;;;;;5091677;28;20028;-68
2022/04/06 04:40:45;;;;;;;6.18;3.33;;;;;;;;;;5091997;28;20066;-70
2022/04/06 04:43:11;;;;;;;6.07;3.53;;;;;;;;;;5091796;28;20366;-69
2022/04/06 04:45:37;;;;;;;6.10;3.00;;;;;;;;;;5092303;28;20185;-70
2022/04/06 04:48:03;;;;;;;7.43;3.63;;;;;;;;;;5092370;28;20082;-70
2022/04/06 04:50:30;;;;;;;3.17;2.17;;;;;;;;;;5074180;28;20481;-70
2022/04/06 04:52:56;;;;;;;13.13;3.88;;;;;;;;;;5072306;28;20038;-70
2022/04/06 04:55:22;;;;;;;4.97;3.38;;;;;;;;;;5091613;28;20111;-70
2022/04/06 04:57:48;;;;;;;7.30;3.33;;;;;;;;;;5092095;28;20495;-69
2022/04/06 05:00:14;;;;;;;5.18;3.92;;;;;;;;;;5091978;28;20099;-69
2022/04/06 05:02:40;;;;;;;7.05;3.97;;;;;;;;;;5091996;28;20292;-70
2022/04/06 05:05:07;;;;;;;4.93;3.10;;;;;;;;;;5090808;28;20016;-70
2022/04/06 05:07:37;;;;;;;6.03;3.45;;;;;;;;;;5090718;28;20032;-69
2022/04/06 05:10:04;;;;;;;5.32;3.85;;;;;;;;;;5091555;28;20401;-69
2022/04/06 05:12:30;;;;;;;7.15;4.07;;;;;;;;;;5073181;28;20076;-70
2022/04/06 05:14:56;;;;;;;4.72;3.03;;;;;;;;;;5091672;28;20094;-70
2022/04/06 05:17:22;;;;;;;5.13;3.20;;;;;;;;;;5091953;28;20103;-69
2022/04/06 05:19:48;;;;;;;6.43;3.47;;;;;;;;;;5073376;28;20481;-69
2022/04/06 05:22:14;;;;;;;6.00;3.70;;;;;;;;;;5089732;28;20028;-70
2022/04/06 05:24:40;;;;;;;6.30;3.78;;;;;;;;;;5091701;28;20032;-69
2022/04/06 05:27:06;;;;;;;11.35;3.97;;;;;;;;;;5091972;28;20452;-70
2022/04/06 05:29:32;;;;;;;8.02;3.65;;;;;;;;;;5091249;28;20036;-70
2022/04/06 05:31:58;;;;;;;11.10;4.10;;;;;;;;;;5072646;28;20537;-69
2022/04/06 05:34:24;;;;;;;5.75;3.38;;;;;;;;;;5091613;28;20024;-70
2022/04/06 05:36:51;;;;;;;2.95;2.03;;;;;;;;;;5071895;28;20043;-70
2022/04/06 05:39:17;;;;;;;9.18;4.10;;;;;;;;;;5089863;28;20027;-69
2022/04/06 05:41:43;;;;;;;7.60;3.67;;;;;;;;;;5090454;28;20016;-69
2022/04/06 05:44:08;;;;;;;6.88;4.20;;;;;;;;;;5090339;28;20526;-70
2022/04/06 05:46:34;;;;;;;9.93;4.75;;;;;;;;;;5061573;28;20032;-70
2022/04/06 05:49:01;;;;;;;6.88;4.05;;;;;;;;;;5070812;28;20066;-70
2022/04/06 05:51:27;;;;;;;8.55;4.55;;;;;;;;;;5069789;28;20032;-70
2022/04/06 05:53:53;;;;;;;5.88;3.63;;;;;;;;;;5089212;28;20055;-70
2022/04/06 05:56:19;;;;;;;5.05;3.67;;;;;;;;;;5090471;28;20020;-70
2022/04/06 05:58:45;;;;;;;7.65;4.53;;;;;;;;;;5073142;28;20024;-70
2022/04/06 06:01:11;;;;;;;5.82;3.80;;;;;;;;;;5090553;28;20028;-70
2022/04/06 06:03:37;;;;;;;5.88;3.70;;;;;;;;;;5090522;28;20111;-70
2022/04/06 06:06:03;;;;;;;6.28;3.97;;;;;;;;;;5090812;28;20103;-70
2022/04/06 06:08:29;;;;;;;6.25;4.20;;;;;;;;;;5089678;28;20070;-70
2022/04/06 06:10:55;;;;;;;7.15;4.60;;;;;;;;;;5090661;28;20051;-70
2022/04/06 06:13:23;;;;;;;4.65;3.42;;;;;;;;;;5088639;28;20442;-70
2022/04/06 06:15:49;;;;;;;8.75;4.25;;;;;;;;;;5072146;28;20048;-69
2022/04/06 06:18:15;;;;;;;6.40;3.38;;;;;;;;;;5090658;28;20028;-69
2022/04/06 06:20:41;;;;;;;6.40;3.70;;;;;;;;;;5090732;28;20108;-71
2022/04/06 06:23:08;;;;;;;5.88;3.47;;;;;;;;;;5088362;28;20024;-69
2022/04/06 06:25:34;;;;;;;8.30;3.67;;;;;;;;;;5072392;28;20028;-69
2022/04/06 06:28:00;;;;;;;6.22;4.10;;;;;;;;;;5090558;28;20240;-70
2022/04/06 06:30:27;;;;;;;8.05;4.53;;;;;;;;;;5090051;28;20405;-69
2022/04/06 06:32:54;;;;;;;7.35;3.80;;;;;;;;;;5071295;28;20036;-70
2022/04/06 06:35:20;;;;;;;7.15;4.00;;;;;;;;;;5071148;28;20038;-70
2022/04/06 06:37:47;;;;;;;7.25;4.18;;;;;;;;;;5071197;28;20044;-69
2022/04/06 06:40:13;;;;;;;6.65;3.65;;;;;;;;;;5089704;28;20534;-70
2022/04/06 06:42:39;;;;;;;7.38;4.00;;;;;;;;;;5089685;28;20054;-69
2022/04/06 06:45:05;;;;;;;11.65;4.32;;;;;;;;;;5089852;28;20376;-70
2022/04/06 06:47:31;;;;;;;9.18;4.50;;;;;;;;;;5089701;28;20381;-70
2022/04/06 06:49:57;;;;;;;7.93;4.13;;;;;;;;;;5089309;28;20036;-69
2022/04/06 06:52:23;;;;;;;7.50;4.50;;;;;;;;;;5088734;28;20059;-69
2022/04/06 06:54:49;;;;;;;7.07;4.15;;;;;;;;;;5089883;28;20027;-69
2022/04/06 06:57:16;;;;;;;11.05;4.57;;;;;;;;;;5089596;28;20028;-69
2022/04/06 06:59:42;;;;;;;10.48;4.70;;;;;;;;;;5090291;28;20469;-69
2022/04/06 07:02:09;;;;;;;7.28;4.60;;;;;;;;;;5071472;28;20422;-69
2022/04/06 07:04:35;;;;;;;9.35;4.50;;;;;;;;;;5071086;28;20031;-70
2022/04/06 07:07:01;;;;;;;8.68;3.58;;;;;;;;;;5089669;28;20035;-69
2022/04/06 07:09:27;;;;;;;8.20;4.00;;;;;;;;;;5088983;28;20115;-69
2022/04/06 07:11:53;;;;;;;10.73;5.00;;;;;;;;;;5089457;28;20497;-70
2022/04/06 07:14:19;;;;;;;7.72;4.63;;;;;;;;;;5072172;28;20032;-69
2022/04/06 07:16:45;;;;;;;8.32;4.47;;;;;;;;;;5089833;28;20028;-69
2022/04/06 07:19:11;;;;;;;9.20;5.32;;;;;;;;;;5090036;28;20028;-69
2022/04/06 07:21:37;;;;;;;9.27;5.03;;;;;;;;;;5089560;28;20024;-69
2022/04/06 07:24:04;;;;;;;7.30;3.75;;;;;;;;;;5067607;28;20068;-69
2022/04/06 07:26:30;;;;;;;8.27;4.85;;;;;;;;;;5089377;28;20036;-70
2022/04/06 07:28:57;;;;;;;9.23;4.88;;;;;;;;;;5071547;28;20194;-70
2022/04/06 07:31:23;;;;;;;7.60;4.57;;;;;;;;;;5090017;28;20163;-70
2022/04/06 07:33:49;;;;;;;9.50;4.88;;;;;;;;;;5089504;28;20036;-69
2022/04/06 07:36:15;;;;;;;7.22;5.03;;;;;;;;;;5089669;28;20016;-69
2022/04/06 07:38:41;;;;;;;7.97;4.47;;;;;;;;;;5088019;28;20492;-70
2022/04/06 07:41:07;;;;;;;4.13;2.22;;;;;;;;;;5071441;28;20028;-69
2022/04/06 07:43:33;;;;;;;1.67;1.27;;;;;;;;;;5089509;28;20081;-69
2022/04/06 07:45:59;;;;;;;7.72;3.85;;;;;;;;;;5089511;28;20101;-70
2022/04/06 07:48:27;;;;;;;5.50;3.80;;;;;;;;;;5089117;28;20449;-69
2022/04/06 07:50:53;;;;;;;9.07;3.88;;;;;;;;;;5071644;28;20111;-69
2022/04/06 07:53:19;;;;;;;2.15;1.48;;;;;;;;;;5088458;28;20423;-69
2022/04/06 07:55:47;;;;;;;6.85;4.65;;;;;;;;;;5089569;28;20169;-69
2022/04/06 07:58:13;;;;;;;11.15;5.13;;;;;;;;;;5088182;28;20039;-70
2022/04/06 08:00:40;;;;;;;8.60;4.60;;;;;;;;;;5088899;28;20020;-70
2022/04/06 08:03:06;;;;;;;7.93;4.90;;;;;;;;;;5088812;28;20495;-69
2022/04/06 08:05:32;;;;;;;8.20;5.05;;;;;;;;;;5089882;28;20477;-69
2022/04/06 08:07:58;;;;;;;10.23;5.05;;;;;;;;;;5089151;28;20618;-70
2022/04/06 08:10:24;;;;;;;6.45;4.22;;;;;;;;;;5091956;28;20412;-69
2022/04/06 08:12:50;;;;;;;4.97;3.13;;;;;;;;;;5075668;28;20028;-69
2022/04/06 08:15:16;;;;;;;4.00;2.80;;;;;;;;;;5093479;28;20032;-69
2022/04/06 08:17:43;;;;;;;5.60;3.42;;;;;;;;;;5092972;28;20529;-69
2022/04/06 08:20:11;;;;;;;2.83;1.73;;;;;;;;;;5093194;28;20051;-70
2022/04/06 08:22:38;;;;;;;5.65;3.35;;;;;;;;;;5092005;28;20027;-69
2022/04/06 08:25:05;;;;;;;5.28;2.45;;;;;;;;;;5070436;28;20059;-70
2022/04/06 08:27:32;;;;;;;5.60;2.33;;;;;;;;;;5054410;28;20064;-69
2022/04/06 08:29:58;;;;;;;5.90;3.15;;;;;;;;;;5072069;28;20067;-69
2022/04/06 08:32:24;;;;;;;2.85;2.10;;;;;;;;;;5054220;28;20083;-69
2022/04/06 08:34:50;;;;;;;4.22;2.50;;;;;;;;;;5072835;28;20469;-70
2022/04/06 08:37:16;;;;;;;2.40;1.85;;;;;;;;;;5072843;28;20049;-69
2022/04/06 08:39:42;;;;;;;3.40;2.63;;;;;;;;;;5085385;28;20038;-70
2022/04/06 08:42:10;;;;;;;4.80;3.17;;;;;;;;;;5092744;28;20016;-69
2022/04/06 08:44:36;;;;;;;5.15;3.83;;;;;;;;;;5092375;28;20060;-69
2022/04/06 08:47:06;;;;;;;7.07;3.90;;;;;;;;;;5092912;28;20028;-70
2022/04/06 08:49:32;;;;;;;3.77;2.53;;;;;;;;;;5092277;28;20082;-69
2022/04/06 08:51:59;;;;;;;2.97;2.38;;;;;;;;;;5092099;28;20020;-69
2022/04/06 08:54:25;;;;;;;3.17;2.45;;;;;;;;;;5091092;28;20031;-70
2022/04/06 08:56:51;;;;;;;4.45;2.33;;;;;;;;;;5092781;28;20028;-69
2022/04/06 08:59:17;;;;;;;4.20;2.63;;;;;;;;;;5091908;28;20032;-69
2022/04/06 09:01:43;;;;;;;5.53;3.20;;;;;;;;;;5092018;28;20023;-69
2022/04/06 09:04:10;;;;;;;3.30;2.35;;;;;;;;;;5091364;28;20161;-70
2022/04/06 09:06:39;;;;;;;6.30;2.28;;;;;;;;;;5090781;28;20499;-69
2022/04/06 09:09:05;;;;;;;1.88;1.38;;;;;;;;;;5073170;28;20024;-69
2022/04/06 09:11:40;;;;;;;2.95;2.03;;;;;;;;;;5073377;28;20027;-69
2022/04/06 09:14:06;;;;;;;4.82;3.10;;;;;;;;;;5091889;28;20385;-69
2022/04/06 09:16:32;;;;;;;3.65;2.60;;;;;;;;;;5091747;28;20031;-69
2022/04/06 09:19:07;;;;;;;3.17;2.10;;;;;;;;;;5090744;28;20020;-70
2022/04/06 09:21:38;;;;;;;1.83;1.50;;;;;;;;;;5091065;28;20024;-69
2022/04/06 09:24:04;;;;;;;2.42;1.67;;;;;;;;;;5090774;28;20419;-70
2022/04/06 09:26:32;;;;;;;2.47;1.25;;;;;;;;;;5074844;28;20077;-69
2022/04/06 09:28:58;;;;;;;3.28;1.63;;;;;;;;;;5092247;28;20059;-70
2022/04/06 09:31:24;;;;;;;1.40;1.08;;;;;;;;;;5091051;28;20082;-69
2022/04/06 09:33:58;;;;;;;4.13;2.47;;;;;;;;;;5092307;28;20028;-69
2022/04/06 09:36:26;;;;;;;2.28;2.00;;;;;;;;;;5092058;28;20013;-70
2022/04/06 09:38:53;;;;;;;3.40;2.53;;;;;;;;;;5091849;28;20032;-70
2022/04/06 09:41:19;;;;;;;3.78;2.50;;;;;;;;;;5073425;28;20094;-69
2022/04/06 09:43:46;;;;;;;3.22;2.38;;;;;;;;;;5073251;28;20149;-69
2022/04/06 09:49:14;;;;;;;2.38;1.80;;;;;;;;;;5092420;28;20050;-69
2022/04/06 09:51:44;;;;;;;4.00;2.37;;;;;;;;;;5074231;28;20028;-69
2022/04/06 09:54:12;;;;;;;2.88;2.13;;;;;;;;;;5091902;28;20050;-69
2022/04/06 09:56:38;;;;;;;2.78;1.60;;;;;;;;;;5073587;28;20036;-69
2022/04/06 09:59:04;;;;;;;1.45;0.95;;;;;;;;;;5092575;28;20034;-69
2022/04/06 10:01:35;;;;;;;3.05;1.25;;;;;;;;;;5073187;28;20372;-69
2022/04/06 10:04:01;;;;;;;;;;;;;;;;;;5092561;28;20043;-69
2022/04/06 10:06:27;;;;;;;2.97;2.05;;;;;;;;;;5073728;28;19908;-69
2022/04/06 10:08:53;;;;;;;3.63;2.10;;;;;;;;;;5092096;28;20556;-70
2022/04/06 10:11:24;;;;;;;4.65;2.83;;;;;;;;;;5091384;28;20036;-69
2022/04/06 10:13:51;;;;;;;6.45;2.63;;;;;;;;;;5075158;28;20089;-69
2022/04/06 10:16:17;;;;;;;2.97;2.00;;;;;;;;;;5091998;28;20433;-69
2022/04/06 10:18:47;;;;;;;5.05;1.73;;;;;;;;;;5092148;28;20050;-69
2022/04/06 10:21:20;;;;;;;1.67;1.35;;;;;;;;;;5091530;28;20083;-70
2022/04/06 10:23:46;;;;;;;3.72;1.45;;;;;;;;;;5091480;28;20111;-69
2022/04/06 10:26:35;;;;;;;2.17;1.92;;;;;;;;;;5091018;28;20031;-69
2022/04/06 10:29:01;;;;;;;7.28;2.05;;;;;;;;;;5073615;28;20500;-69
2022/04/06 10:31:29;;;;;;;2.10;1.50;;;;;;;;;;5090860;28;20068;-69
2022/04/06 10:34:14;;;;;;;0.55;0.55;;;;;;;;;;5091535;28;20107;-69
2022/04/06 10:36:41;;;;;;;2.80;2.00;;;;;;;;;;5091835;28;20036;-69
2022/04/06 10:39:09;;;;;;;2.42;1.52;;;;;;;;;;5091840;28;20024;-69
2022/04/06 10:41:39;;;;;;;2.55;2.00;;;;;;;;;;5068910;28;20504;-69
2022/04/06 10:44:05;;;;;;;2.58;1.75;;;;;;;;;;5053920;28;20036;-69
2022/04/06 10:46:38;;;;;;;1.00;0.80;;;;;;;;;;5062386;28;20028;-69
2022/04/06 10:49:15;;;;;;;0.93;0.88;;;;;;;;;;5072640;28;20028;-69
2022/04/06 10:51:56;;;;;;;1.77;1.25;;;;;;;;;;5072779;28;20027;-69
2022/04/06 10:54:23;;;;;;;1.65;1.20;;;;;;;;;;5070920;28;20020;-69
2022/04/06 10:56:56;;;;;;;2.45;1.13;;;;;;;;;;5088741;28;20016;-69
2022/04/06 10:59:23;;;;;;;1.15;1.05;;;;;;;;;;5073760;28;20028;-69
2022/04/06 11:01:49;;;;;;;2.25;1.95;;;;;;;;;;5091768;28;20032;-69
2022/04/06 11:04:22;;;;;;;0.73;0.70;;;;;;;;;;5091794;28;20023;-69
2022/04/06 11:06:53;;;;;;;2.92;1.60;;;;;;;;;;5091685;28;20035;-69
2022/04/06 11:12:28;;;;;;;0.40;0.40;;;;;;;;;;5091016;28;20405;-69
2022/04/06 11:15:00;;;;;;;1.48;1.33;;;;;;;;;;5091334;28;20481;-70
2022/04/06 11:20:16;;;;;;;2.17;1.65;;;;;;;;;;5090856;28;20123;-69
2022/04/06 11:22:43;;;;;;;9.13;1.80;;;;;;;;;;5089733;28;20063;-69
2022/04/06 11:25:20;;;;;;;0.50;0.50;;;;;;;;;;5089509;28;20032;-69
2022/04/06 11:27:47;;;;;;;0.82;0.82;;;;;;;;;;5074239;28;20041;-69
2022/04/06 11:30:23;;;;;;;3.63;1.75;;;;;;;;;;5051671;28;20037;-69
2022/04/06 11:32:56;;;;;;;1.20;1.10;;;;;;;;;;5070895;28;20039;-69
2022/04/06 11:35:29;;;;;;;3.20;0.73;;;;;;;;;;5070969;28;20444;-69
2022/04/06 11:37:57;;;;;;;2.63;1.10;;;;;;;;;;5070616;28;20029;-69
2022/04/06 11:40:24;;;;;;;2.55;1.50;;;;;;;;;;5054530;28;20443;-69
2022/04/06 11:42:51;;;;;;;1.88;1.45;;;;;;;;;;5092878;28;20024;-69
2022/04/06 11:45:22;;;;;;;1.45;1.35;;;;;;;;;;5076887;28;20058;-69
2022/04/06 11:47:55;;;;;;;2.55;1.88;;;;;;;;;;5056768;28;20033;-69
2022/04/06 11:50:22;;;;;;;1.42;1.33;;;;;;;;;;5074101;28;20046;-69
2022/04/06 11:52:48;;;;;;;2.05;1.60;;;;;;;;;;5055317;28;20032;-69
2022/04/06 11:55:14;;;;;;;3.03;1.48;;;;;;;;;;5055587;28;20041;-70
2022/04/06 11:57:42;;;;;;;2.25;1.40;;;;;;;;;;5093445;28;20515;-69
2022/04/06 12:00:10;;;;;;;2.45;1.33;;;;;;;;;;5094411;28;20028;-69
2022/04/06 12:03:02;;;;;;;3.88;1.17;;;;;;;;;;5080037;28;20477;-69
2022/04/06 12:05:29;;;;;;;1.35;1.13;;;;;;;;;;5069692;28;20055;-69
2022/04/06 12:08:07;;;;;;;1.65;1.30;;;;;;;;;;5073548;28;20040;-69
2022/04/06 12:10:33;;;;;;;1.40;0.63;;;;;;;;;;5073459;28;20485;-69
2022/04/06 12:12:59;;;;;;;3.92;1.15;;;;;;;;;;5092944;28;20103;-69
2022/04/06 12:15:25;;;;;;;1.50;1.20;;;;;;;;;;5093346;28;20089;-69
2022/04/06 12:17:51;;;;;;;1.20;1.05;;;;;;;;;;5093503;28;20031;-69
2022/04/06 12:20:23;;;;;;;5.43;1.70;;;;;;;;;;5093209;28;20028;-69
2022/04/06 12:23:03;;;;;;;1.38;1.27;;;;;;;;;;5093215;28;20523;-68
2022/04/06 12:25:30;;;;;;;3.17;1.23;;;;;;;;;;5092992;28;20035;-69
2022/04/06 12:28:12;;;;;;;1.98;1.27;;;;;;;;;;5075303;28;20055;-68
2022/04/06 12:30:59;;;;;;;1.30;1.20;;;;;;;;;;5074507;28;20043;-69
2022/04/06 12:33:39;;;;;;;0.40;0.40;;;;;;;;;;5092539;28;20102;-69
2022/04/06 12:36:11;;;;;;;0.80;0.80;;;;;;;;;;5074762;28;20052;-69
2022/04/06 12:38:37;;;;;;;0.47;0.47;;;;;;;;;;5074968;28;20726;-69
2022/04/06 12:41:07;;;;;;;1.42;1.00;;;;;;;;;;5072643;28;20131;-69
2022/04/06 12:43:37;;;;;;;2.00;0.98;;;;;;;;;;5092471;28;20052;-69
2022/04/06 12:46:03;;;;;;;4.22;1.20;;;;;;;;;;5092367;28;20048;-69
2022/04/06 12:48:30;;;;;;;2.03;1.30;;;;;;;;;;5092141;28;20043;-69
2022/04/06 12:50:57;;;;;;;1.13;1.00;;;;;;;;;;5092363;28;20110;-69
2022/04/06 12:53:23;;;;;;;3.80;1.15;;;;;;;;;;5091469;28;20085;-69
2022/04/06 12:56:10;;;;;;;1.75;1.00;;;;;;;;;;5091709;28;20308;-69
2022/04/06 12:58:36;;;;;;;1.90;0.43;;;;;;;;;;5092225;28;20474;-68
2022/04/06 13:01:02;;;;;;;1.15;1.00;;;;;;;;;;5092661;28;20060;-69
2022/04/06 13:03:28;;;;;;;0.75;0.70;;;;;;;;;;5074001;28;20119;-69
2022/04/06 13:05:54;;;;;;;0.73;0.73;;;;;;;;;;5091683;28;20021;-69
2022/04/06 13:08:22;;;;;;;0.70;0.70;;;;;;;;;;5090429;28;20043;-69
2022/04/06 13:10:48;;;;;;;0.80;0.60;;;;;;;;;;5092452;28;20027;-69
2022/04/06 13:13:14;;;;;;;5.82;0.90;;;;;;;;;;5091337;28;20028;-69
2022/04/06 13:15:40;;;;;;;0.80;0.60;;;;;;;;;;5092154;28;20492;-69
2022/04/06 13:18:07;;;;;;;0.40;0.40;;;;;;;;;;5091653;28;20031;-69
2022/04/06 13:20:34;;;;;;;0.60;0.60;;;;;;;;;;5091515;28;20031;-69
2022/04/06 13:23:00;;;;;;;0.98;0.60;;;;;;;;;;5090991;28;20466;-68
2022/04/06 13:25:25;;;;;;;0.50;0.50;;;;;;;;;;5091417;28;20031;-68
2022/04/06 13:27:51;;;;;;;0.43;0.43;;;;;;;;;;5090424;28;20036;-68
2022/04/06 13:30:18;;;;;;;1.00;0.57;;;;;;;;;;5091206;28;20058;-68
2022/04/06 13:32:45;;;;;;;0.63;0.50;;;;;;;;;;5090718;28;20035;-68
2022/04/06 13:35:11;;;;;;;0.40;0.40;;;;;;;;;;5090907;28;20035;-69
2022/04/06 13:37:38;;;;;;;0.80;0.80;;;;;;;;;;5091412;28;20027;-69
2022/04/06 13:40:05;;;;;;;0.50;0.50;;;;;;;;;;5091390;28;20473;-69
2022/04/06 13:42:31;;;;;;;1.02;0.77;;;;;;;;;;5089437;28;20024;-68
2022/04/06 13:44:58;;;;;;;0.30;0.30;;;;;;;;;;5091331;28;20028;-69
2022/04/06 13:47:24;;;;;;;0.98;0.50;;;;;;;;;;5072419;28;20059;-69
2022/04/06 13:49:50;;;;;;;0.45;0.43;;;;;;;;;;5091035;28;20339;-69
2022/04/06 13:52:16;;;;;;;0.82;0.70;;;;;;;;;;5090463;28;20538;-69
2022/04/06 13:54:42;;;;;;;3.72;0.68;;;;;;;;;;5090796;28;20343;-71
2022/04/06 13:57:09;;;;;;;0.82;0.65;;;;;;;;;;5090215;28;20469;-69
2022/04/06 13:59:35;;;;;;;1.88;0.80;;;;;;;;;;5091883;28;20415;-69
2022/04/06 14:02:01;;;;;;;1.55;0.70;;;;;;;;;;5090512;28;20020;-69
2022/04/06 14:04:28;;;;;;;1.02;0.60;;;;;;;;;;5090895;28;20452;-69
2022/04/06 14:06:54;;;;;;;0.73;0.40;;;;;;;;;;5089610;28;20081;-69
2022/04/06 14:09:22;;;;;;;1.08;0.50;;;;;;;;;;5091057;28;20388;-69
2022/04/06 14:11:49;;;;;;;0.50;0.50;;;;;;;;;;5070616;28;20081;-69
2022/04/06 14:14:15;;;;;;;0.70;0.60;;;;;;;;;;5090567;28;20192;-69
2022/04/06 14:16:42;;;;;;;2.35;0.85;;;;;;;;;;5072605;28;20023;-68
2022/04/06 14:19:09;;;;;;;2.00;0.60;;;;;;;;;;5090567;28;20069;-69
2022/04/06 14:21:35;;;;;;;0.77;0.60;;;;;;;;;;5090104;28;20503;-69
2022/04/06 14:24:02;;;;;;;1.60;0.77;;;;;;;;;;5072072;28;20108;-69
2022/04/06 14:26:28;;;;;;;0.85;0.50;;;;;;;;;;5072813;28;20028;-69
2022/04/06 14:28:55;;;;;;;1.10;0.63;;;;;;;;;;5090103;28;20093;-68
2022/04/06 14:31:21;;;;;;;4.47;0.52;;;;;;;;;;5090299;28;20032;-69
2022/04/06 14:33:47;;;;;;;3.28;0.52;;;;;;;;;;5090415;28;20408;-69
2022/04/06 14:36:13;;;;;;;0.77;0.50;;;;;;;;;;5090123;28;20042;-70
2022/04/06 14:38:39;;;;;;;1.60;0.65;;;;;;;;;;5090643;28;20067;-69
2022/04/06 14:41:08;;;;;;;0.45;0.45;;;;;;;;;;5090430;28;20027;-69
2022/04/06 14:43:34;;;;;;;1.00;0.47;;;;;;;;;;5071340;28;20048;-68
2022/04/06 14:46:00;;;;;;;0.70;0.68;;;;;;;;;;5090443;28;20031;-68
2022/04/06 14:48:27;;;;;;;1.20;0.80;;;;;;;;;;5090138;28;20028;-68
2022/04/06 14:50:53;;;;;;;5.75;0.60;;;;;;;;;;5090536;28;20032;-69
2022/04/06 14:53:19;;;;;;;2.28;0.50;;;;;;;;;;5090137;28;20100;-68
2022/04/06 14:55:45;;;;;;;0.57;0.55;;;;;;;;;;5090429;28;20020;-68
2022/04/06 14:58:12;;;;;;;0.40;0.40;;;;;;;;;;5089747;28;20027;-68
2022/04/06 15:00:39;;;;;;;1.17;0.88;;;;;;;;;;5072924;28;20035;-68